createdAt,value
2023-04-09T00:01:06.624Z,7.66
2023-04-09T00:04:09.648Z,7.58
2023-04-09T00:07:12.625Z,7.16
2023-04-09T00:10:16.883Z,7.26
2023-04-09T00:13:31.937Z,7.44
2023-04-09T00:16:41.922Z,7.32
2023-04-09T00:19:44.849Z,7.08
2023-04-09T00:22:48.615Z,7.01
2023-04-09T00:25:51.333Z,6.99
2023-04-09T00:28:55.666Z,7.04
2023-04-09T00:31:58.729Z,6.99
2023-04-09T00:35:03.033Z,6.64
2023-04-09T00:38:05.951Z,6.35
2023-04-09T00:41:08.802Z,6.64
2023-04-09T00:44:13.213Z,6.79
2023-04-09T00:47:16.149Z,7.02
2023-04-09T00:50:19.416Z,7.08
2023-04-09T00:53:22.547Z,7.20
2023-04-09T00:56:25.673Z,7.21
2023-04-09T00:59:30.364Z,7.14
2023-04-09T01:02:34.555Z,6.80
2023-04-09T01:05:45.342Z,7.09
2023-04-09T01:08:58.379Z,7.46
2023-04-09T01:12:16.320Z,7.51
2023-04-09T01:15:26.937Z,7.20
2023-04-09T01:18:35.734Z,7.00
2023-04-09T01:21:40.276Z,6.98
2023-04-09T01:24:53.898Z,7.07
2023-04-09T01:28:17.451Z,6.97
2023-04-09T01:31:23.351Z,6.72
2023-04-09T01:34:27.503Z,6.28
2023-04-09T01:37:31.073Z,6.11
2023-04-09T01:40:35.558Z,6.29
2023-04-09T01:43:43.789Z,6.48
2023-04-09T01:46:48.135Z,6.38
2023-04-09T01:49:53.603Z,6.55
2023-04-09T01:52:56.436Z,6.46
2023-04-09T01:56:01.710Z,6.41
2023-04-09T01:59:05.909Z,6.22
2023-04-09T02:02:13.738Z,6.21
2023-04-09T02:05:20.549Z,6.62
2023-04-09T02:08:26.458Z,6.93
2023-04-09T02:11:30.727Z,6.96
2023-04-09T02:14:36.285Z,7.01
2023-04-09T02:17:39.440Z,6.88
2023-04-09T02:20:42.590Z,6.50
2023-04-09T02:23:45.600Z,6.17
2023-04-09T02:26:50.251Z,6.05
2023-04-09T02:29:54.786Z,6.18
2023-04-09T02:32:57.603Z,6.13
2023-04-09T02:36:01.027Z,5.86
2023-04-09T02:39:04.094Z,5.62
2023-04-09T02:42:07.957Z,5.66
2023-04-09T02:45:12.681Z,5.92
2023-04-09T02:48:15.509Z,6.07
2023-04-09T02:51:18.361Z,6.09
2023-04-09T02:54:21.473Z,6.03
2023-04-09T02:57:24.322Z,6.04
2023-04-09T03:00:28.844Z,5.76
2023-04-09T03:03:33.059Z,5.88
2023-04-09T03:06:36.192Z,5.89
2023-04-09T03:09:38.885Z,5.91
2023-04-09T03:12:44.555Z,5.82
2023-04-09T03:15:52.908Z,5.91
2023-04-09T03:18:55.920Z,5.77
2023-04-09T03:22:06.597Z,5.79
2023-04-09T03:25:10.332Z,5.77
2023-04-09T03:28:13.209Z,6.04
2023-04-09T03:31:17.374Z,6.22
2023-04-09T03:34:20.203Z,6.06
2023-04-09T03:37:23.111Z,5.83
2023-04-09T03:40:26.028Z,5.96
2023-04-09T03:43:28.885Z,6.18
2023-04-09T03:46:33.339Z,6.22
2023-04-09T03:49:36.662Z,6.31
2023-04-09T03:52:39.925Z,6.35
2023-04-09T03:55:43.104Z,6.18
2023-04-09T03:58:45.979Z,6.36
2023-04-09T04:01:51.268Z,6.41
2023-04-09T04:04:54.031Z,6.74
2023-04-09T04:07:57.272Z,6.56
2023-04-09T04:11:04.835Z,6.77
2023-04-09T04:14:07.625Z,6.65
2023-04-09T04:17:12.216Z,6.48
2023-04-09T04:20:15.341Z,6.40
2023-04-09T04:23:18.037Z,6.45
2023-04-09T04:26:21.010Z,6.39
2023-04-09T04:29:23.750Z,6.18
2023-04-09T04:32:28.348Z,6.17
2023-04-09T04:35:31.153Z,6.03
2023-04-09T04:38:34.552Z,6.28
2023-04-09T04:41:37.293Z,6.28
2023-04-09T04:44:40.124Z,6.14
2023-04-09T04:47:44.410Z,6.02
2023-04-09T04:50:47.462Z,6.17
2023-04-09T04:53:50.276Z,6.28
2023-04-09T04:56:53.289Z,6.28
2023-04-09T04:59:56.318Z,6.44
2023-04-09T05:03:00.873Z,6.70
2023-04-09T05:06:03.691Z,6.91
2023-04-09T05:09:06.448Z,7.15
2023-04-09T05:12:09.601Z,7.12
2023-04-09T05:15:12.514Z,7.12
2023-04-09T05:18:16.759Z,7.30
2023-04-09T05:21:19.582Z,7.36
2023-04-09T05:24:22.319Z,7.08
2023-04-09T05:27:26.027Z,7.01
2023-04-09T05:30:28.797Z,6.82
2023-04-09T05:33:37.865Z,6.78
2023-04-09T05:36:41.470Z,6.69
2023-04-09T05:39:44.227Z,6.69
2023-04-09T05:42:48.192Z,6.68
2023-04-09T05:45:51.223Z,6.72
2023-04-09T05:48:55.687Z,6.75
2023-04-09T05:51:58.712Z,6.76
2023-04-09T05:55:01.527Z,6.84
2023-04-09T05:58:04.303Z,6.86
2023-04-09T06:01:07.412Z,6.84
2023-04-09T06:04:11.998Z,6.86
2023-04-09T06:07:15.263Z,6.85
2023-04-09T06:10:18.377Z,6.92
2023-04-09T06:13:21.275Z,6.96
2023-04-09T06:16:24.135Z,6.88
2023-04-09T06:19:28.613Z,6.78
2023-04-09T06:22:31.781Z,6.86
2023-04-09T06:25:35.329Z,6.75
2023-04-09T06:28:38.574Z,6.83
2023-04-09T06:31:41.974Z,6.88
2023-04-09T06:34:46.168Z,7.09
2023-04-09T06:37:49.023Z,6.97
2023-04-09T06:40:52.092Z,7.09
2023-04-09T06:43:55.610Z,7.16
2023-04-09T06:46:58.346Z,6.93
2023-04-09T06:50:03.041Z,6.97
2023-04-09T06:53:07.675Z,7.01
2023-04-09T06:56:10.402Z,6.99
2023-04-09T06:59:13.273Z,7.14
2023-04-09T07:02:16.160Z,7.24
2023-04-09T07:05:20.868Z,7.20
2023-04-09T07:08:24.011Z,7.10
2023-04-09T07:11:26.786Z,7.24
2023-04-09T07:14:30.937Z,7.26
2023-04-09T07:17:34.934Z,7.29
2023-04-09T07:20:39.175Z,7.39
2023-04-09T07:23:42.511Z,7.53
2023-04-09T07:26:45.452Z,7.45
2023-04-09T07:29:48.281Z,7.35
2023-04-09T07:32:51.612Z,7.46
2023-04-09T07:35:56.153Z,7.54
2023-04-09T07:39:00.652Z,7.48
2023-04-09T07:42:04.448Z,7.45
2023-04-09T07:45:08.432Z,7.61
2023-04-09T07:48:12.996Z,7.55
2023-04-09T07:51:17.522Z,7.64
2023-04-09T07:54:21.228Z,7.75
2023-04-09T07:57:23.916Z,7.86
2023-04-09T08:00:27.295Z,7.81
2023-04-09T08:03:30.215Z,7.85
2023-04-09T08:06:34.561Z,7.88
2023-04-09T08:09:37.318Z,7.89
2023-04-09T08:12:40.331Z,8.03
2023-04-09T08:15:43.102Z,7.92
2023-04-09T08:18:46.200Z,7.99
2023-04-09T08:21:50.715Z,8.08
2023-04-09T08:24:54.326Z,8.23
2023-04-09T08:27:58.264Z,8.39
2023-04-09T08:31:04.529Z,8.42
2023-04-09T08:34:07.634Z,8.43
2023-04-09T08:37:11.873Z,8.40
2023-04-09T08:40:15.499Z,8.15
2023-04-09T08:43:23.660Z,8.29
2023-04-09T08:46:28.518Z,8.57
2023-04-09T08:49:31.223Z,8.69
2023-04-09T08:52:36.443Z,8.66
2023-04-09T08:55:39.518Z,8.62
2023-04-09T08:58:44.709Z,8.69
2023-04-09T09:01:52.834Z,8.44
2023-04-09T09:05:00.810Z,8.33
2023-04-09T09:08:05.481Z,8.47
2023-04-09T09:11:08.330Z,8.47
2023-04-09T09:14:12.541Z,8.77
2023-04-09T09:17:15.531Z,8.66
2023-04-09T09:20:22.862Z,8.81
2023-04-09T09:23:37.876Z,8.85
2023-04-09T09:26:41.023Z,8.79
2023-04-09T09:29:44.926Z,9.03
2023-04-09T09:32:47.810Z,9.04
2023-04-09T09:35:51.592Z,9.07
2023-04-09T09:38:57.537Z,9.36
2023-04-09T09:42:10.095Z,9.41
2023-04-09T09:45:19.472Z,9.07
2023-04-09T09:48:22.263Z,9.23
2023-04-09T09:51:31.050Z,9.32
2023-04-09T09:54:41.653Z,9.43
2023-04-09T09:57:47.313Z,9.62
2023-04-09T10:00:52.770Z,9.64
2023-04-09T10:03:59.634Z,9.68
2023-04-09T10:07:05.786Z,9.55
2023-04-09T10:10:11.029Z,9.91
2023-04-09T10:13:21.870Z,9.90
2023-04-09T10:16:25.978Z,9.99
2023-04-09T10:19:29.063Z,10.06
2023-04-09T10:22:34.792Z,10.12
2023-04-09T10:25:38.938Z,10.15
2023-04-09T10:28:42.056Z,10.28
2023-04-09T10:31:55.203Z,10.37
2023-04-09T10:34:59.304Z,10.27
2023-04-09T10:38:02.301Z,10.50
2023-04-09T10:41:14.048Z,10.26
2023-04-09T10:44:24.520Z,10.37
2023-04-09T10:47:34.191Z,10.30
2023-04-09T10:50:38.068Z,10.47
2023-04-09T10:53:40.915Z,10.62
2023-04-09T10:57:13.741Z,11.05
2023-04-09T11:00:18.676Z,10.77
2023-04-09T11:03:23.804Z,11.27
2023-04-09T11:06:27.744Z,11.09
2023-04-09T11:09:30.806Z,11.25
2023-04-09T11:12:35.141Z,11.33
2023-04-09T11:15:38.309Z,11.60
2023-04-09T11:18:42.107Z,12.26
2023-04-09T11:21:46.209Z,12.81
2023-04-09T11:24:50.775Z,13.18
2023-04-09T11:27:55.705Z,13.16
2023-04-09T11:30:58.432Z,13.79
2023-04-09T11:34:01.134Z,13.92
2023-04-09T11:37:09.107Z,13.85
2023-04-09T11:40:22.156Z,14.15
2023-04-09T11:43:26.601Z,14.72
2023-04-09T11:46:29.735Z,14.79
2023-04-09T11:49:32.558Z,14.53
2023-04-09T11:52:35.875Z,14.97
2023-04-09T11:55:38.583Z,14.67
2023-04-09T11:58:47.065Z,15.20
2023-04-09T12:01:51.204Z,15.13
2023-04-09T12:04:54.208Z,14.72
2023-04-09T12:07:59.832Z,14.80
2023-04-09T12:11:10.417Z,15.28
2023-04-09T12:14:16.742Z,15.44
2023-04-09T12:17:22.009Z,15.11
2023-04-09T12:20:32.387Z,15.07
2023-04-09T12:23:35.337Z,15.27
2023-04-09T12:26:38.041Z,14.77
2023-04-09T12:29:42.205Z,14.88
2023-04-09T12:32:45.939Z,15.21
2023-04-09T12:35:48.818Z,15.38
2023-04-09T12:38:51.952Z,15.49
2023-04-09T12:41:54.995Z,15.24
2023-04-09T12:44:59.245Z,15.54
2023-04-09T12:48:02.268Z,15.62
2023-04-09T12:51:05.959Z,15.28
2023-04-09T12:54:08.827Z,15.09
2023-04-09T12:57:11.537Z,15.33
2023-04-09T13:00:17.070Z,15.36
2023-04-09T13:03:19.889Z,15.39
2023-04-09T13:06:23.258Z,15.25
2023-04-09T13:09:26.425Z,15.24
2023-04-09T13:12:29.164Z,15.52
2023-04-09T13:15:33.313Z,15.72
2023-04-09T13:18:36.304Z,15.73
2023-04-09T13:21:39.314Z,15.63
2023-04-09T13:24:43.282Z,15.57
2023-04-09T13:27:46.067Z,15.43
2023-04-09T13:30:51.365Z,15.29
2023-04-09T13:33:54.326Z,15.51
2023-04-09T13:36:57.219Z,15.34
2023-04-09T13:40:00.143Z,15.31
2023-04-09T13:43:02.851Z,15.15
2023-04-09T13:46:07.564Z,15.28
2023-04-09T13:49:10.298Z,15.13
2023-04-09T13:52:13.092Z,15.24
2023-04-09T13:55:15.819Z,15.06
2023-04-09T13:58:18.628Z,15.21
2023-04-09T14:01:22.975Z,15.05
2023-04-09T14:04:25.691Z,14.94
2023-04-09T14:07:28.680Z,15.13
2023-04-09T14:10:31.396Z,15.13
2023-04-09T14:13:34.286Z,15.00
2023-04-09T14:16:38.913Z,15.14
2023-04-09T14:19:41.639Z,14.88
2023-04-09T14:22:49.123Z,15.05
2023-04-09T14:25:51.786Z,15.08
2023-04-09T14:28:55.025Z,14.65
2023-04-09T14:31:59.965Z,14.76
2023-04-09T14:35:03.008Z,14.82
2023-04-09T14:38:05.746Z,14.94
2023-04-09T14:41:08.678Z,14.79
2023-04-09T14:44:11.464Z,14.82
2023-04-09T14:47:16.066Z,14.64
2023-04-09T14:50:19.070Z,14.72
2023-04-09T14:53:21.844Z,14.81
2023-04-09T14:56:25.125Z,14.83
2023-04-09T14:59:27.813Z,14.87
2023-04-09T15:02:32.090Z,14.79
2023-04-09T15:05:34.899Z,14.64
2023-04-09T15:08:37.590Z,14.91
2023-04-09T15:11:41.267Z,14.59
2023-04-09T15:14:43.935Z,14.60
2023-04-09T15:17:48.029Z,14.60
2023-04-09T15:20:51.147Z,14.56
2023-04-09T15:23:54.402Z,14.49
2023-04-09T15:26:57.811Z,14.29
2023-04-09T15:30:00.689Z,14.33
2023-04-09T15:33:06.207Z,14.42
2023-04-09T15:36:09.835Z,14.37
2023-04-09T15:42:33.137Z,14.18
2023-04-09T15:45:35.850Z,14.25
2023-04-09T15:48:40.121Z,14.18
2023-04-09T15:51:42.990Z,14.05
2023-04-09T15:54:45.786Z,13.90
2023-04-09T15:57:48.470Z,13.92
2023-04-09T16:00:51.598Z,13.74
2023-04-09T16:03:56.358Z,13.77
2023-04-09T16:06:59.298Z,13.64
2023-04-09T16:10:02.310Z,13.56
2023-04-09T16:13:05.638Z,13.51
2023-04-09T16:16:08.813Z,13.25
2023-04-09T16:19:12.996Z,13.17
2023-04-09T16:22:15.733Z,13.15
2023-04-09T16:25:18.526Z,13.15
2023-04-09T16:28:22.364Z,13.26
2023-04-09T16:31:25.085Z,13.09
2023-04-09T16:34:31.540Z,13.07
2023-04-09T16:37:35.167Z,13.02
2023-04-09T16:40:38.030Z,13.11
2023-04-09T16:43:41.170Z,12.97
2023-04-09T16:46:44.109Z,12.89
2023-04-09T16:49:48.341Z,12.82
2023-04-09T16:52:51.417Z,12.91
2023-04-09T16:55:54.148Z,12.88
2023-04-09T16:58:56.989Z,12.97
2023-04-09T17:01:59.785Z,12.70
2023-04-09T17:05:04.572Z,12.59
2023-04-09T17:08:07.333Z,12.57
2023-04-09T17:11:10.232Z,12.56
2023-04-09T17:14:13.041Z,12.50
2023-04-09T17:17:16.139Z,12.37
2023-04-09T17:20:20.854Z,12.35
2023-04-09T17:23:23.861Z,12.29
2023-04-09T17:26:27.113Z,12.17
2023-04-09T17:29:29.839Z,12.15
2023-04-09T17:32:32.582Z,12.12
2023-04-09T17:35:36.721Z,11.98
2023-04-09T17:38:39.629Z,11.94
2023-04-09T17:41:43.719Z,11.92
2023-04-09T17:44:46.549Z,11.90
2023-04-09T17:47:51.144Z,11.79
2023-04-09T17:50:55.450Z,11.70
2023-04-09T17:53:58.191Z,11.57
2023-04-09T17:57:01.017Z,11.47
2023-04-09T18:00:05.051Z,11.43
2023-04-09T18:03:07.966Z,11.39
2023-04-09T18:06:12.397Z,11.35
2023-04-09T18:09:15.590Z,11.21
2023-04-09T18:12:18.316Z,11.06
2023-04-09T18:15:21.839Z,11.00
2023-04-09T18:18:24.775Z,10.84
2023-04-09T18:21:28.868Z,10.77
2023-04-09T18:24:33.566Z,10.65
2023-04-09T18:27:36.325Z,10.55
2023-04-09T18:30:39.766Z,10.45
2023-04-09T18:33:42.689Z,10.32
2023-04-09T18:36:47.304Z,10.20
2023-04-09T18:39:50.223Z,10.12
2023-04-09T18:42:53.439Z,10.08
2023-04-09T18:45:56.297Z,10.00
2023-04-09T18:48:59.772Z,9.90
2023-04-09T18:52:05.366Z,9.85
2023-04-09T18:55:09.524Z,9.78
2023-04-09T18:58:15.045Z,9.70
2023-04-09T19:01:19.806Z,9.65
2023-04-09T19:04:22.831Z,9.57
2023-04-09T19:07:27.315Z,9.42
2023-04-09T19:10:30.686Z,9.34
2023-04-09T19:13:33.498Z,9.32
2023-04-09T19:16:36.398Z,9.24
2023-04-09T19:19:39.371Z,9.18
2023-04-09T19:22:47.784Z,9.11
2023-04-09T19:25:52.625Z,9.02
2023-04-09T19:28:55.769Z,9.00
2023-04-09T19:31:58.749Z,8.93
2023-04-09T19:35:01.822Z,8.89
2023-04-09T19:38:06.414Z,8.83
2023-04-09T19:41:09.338Z,8.78
2023-04-09T19:44:12.417Z,8.75
2023-04-09T19:47:16.805Z,8.72
2023-04-09T19:50:19.794Z,8.66
2023-04-09T19:53:23.902Z,8.59
2023-04-09T19:56:26.825Z,8.34
2023-04-09T19:59:29.801Z,8.30
2023-04-09T20:02:32.613Z,8.25
2023-04-09T20:05:35.857Z,8.20
2023-04-09T20:08:40.764Z,8.18
2023-04-09T20:11:43.823Z,8.16
2023-04-09T20:14:47.183Z,8.16
2023-04-09T20:17:50.944Z,8.48
2023-04-09T20:20:54.053Z,9.01
2023-04-09T20:23:58.095Z,9.22
2023-04-09T20:27:01.647Z,9.49
2023-04-09T20:30:04.980Z,9.40
2023-04-09T20:33:07.746Z,9.04
2023-04-09T20:36:16.240Z,8.67
2023-04-09T20:39:20.521Z,8.42
2023-04-09T20:42:23.243Z,8.38
2023-04-09T20:45:26.133Z,8.53
2023-04-09T20:48:31.339Z,8.68
2023-04-09T20:51:34.102Z,8.72
2023-04-09T20:54:39.346Z,8.75
2023-04-09T20:57:42.372Z,8.64
2023-04-09T21:00:45.224Z,8.66
2023-04-09T21:03:48.042Z,8.50
2023-04-09T21:06:50.980Z,8.51
2023-04-09T21:09:55.075Z,8.45
2023-04-09T21:12:57.782Z,8.48
2023-04-09T21:16:00.575Z,8.41
2023-04-09T21:19:06.955Z,8.34
2023-04-09T21:22:10.069Z,8.18
2023-04-09T21:25:15.497Z,8.07
2023-04-09T21:28:18.484Z,8.21
2023-04-09T21:31:22.070Z,8.30
2023-04-09T21:34:25.004Z,8.38
2023-04-09T21:37:28.976Z,8.40
2023-04-09T21:40:33.610Z,8.29
2023-04-09T21:43:38.238Z,8.24
2023-04-09T21:46:42.684Z,8.32
2023-04-09T21:49:46.378Z,8.34
2023-04-09T21:52:49.186Z,8.32
2023-04-09T21:55:53.405Z,8.40
2023-04-09T21:58:56.264Z,8.37
2023-04-09T22:01:59.180Z,8.28
2023-04-09T22:05:02.053Z,8.26
2023-04-09T22:08:04.869Z,8.12
2023-04-09T22:11:09.046Z,7.96
2023-04-09T22:14:11.939Z,8.03
2023-04-09T22:17:14.809Z,8.07
2023-04-09T22:20:17.586Z,7.88
2023-04-09T22:23:20.651Z,7.71
2023-04-09T22:26:24.966Z,7.66
2023-04-09T22:29:28.312Z,7.60
2023-04-09T22:32:33.435Z,7.62
2023-04-09T22:35:36.405Z,7.49
2023-04-09T22:38:39.268Z,7.43
2023-04-09T22:41:43.464Z,7.34
2023-04-09T22:44:46.383Z,7.32
2023-04-09T22:47:49.400Z,7.40
2023-04-09T22:50:52.157Z,7.55
2023-04-09T22:53:55.026Z,7.48
2023-04-09T22:56:59.119Z,7.33
2023-04-09T23:00:02.024Z,7.29
2023-04-09T23:03:05.096Z,7.31
2023-04-09T23:06:08.077Z,7.32
2023-04-09T23:09:11.037Z,7.29
2023-04-09T23:12:15.425Z,7.28
2023-04-09T23:15:18.306Z,7.24
2023-04-09T23:18:21.214Z,7.09
2023-04-09T23:21:23.942Z,7.22
2023-04-09T23:24:26.837Z,7.23
2023-04-09T23:27:31.081Z,7.29
2023-04-09T23:30:33.899Z,7.37
2023-04-09T23:33:36.887Z,7.39
2023-04-09T23:36:39.966Z,7.18
2023-04-09T23:39:43.214Z,6.99
2023-04-09T23:42:47.911Z,6.88
2023-04-09T23:45:50.845Z,6.90
2023-04-09T23:48:53.659Z,7.06
2023-04-09T23:51:56.329Z,7.12
2023-04-09T23:54:59.992Z,6.92
2023-04-09T23:58:04.070Z,6.83
